createdAt,value
2019-01-20T00:00:43.734Z,-2.87
2019-01-20T00:03:13.171Z,-2.93
2019-01-20T00:05:43.160Z,-3.07
2019-01-20T00:08:12.910Z,-3.08
2019-01-20T00:10:42.229Z,-2.98
2019-01-20T00:13:13.907Z,-2.97
2019-01-20T00:15:45.274Z,-2.94
2019-01-20T00:18:19.485Z,-3.01
2019-01-20T00:20:49.299Z,-3.00
2019-01-20T00:23:19.433Z,-3.03
2019-01-20T00:25:50.959Z,-3.09
2019-01-20T00:28:21.286Z,-3.02
2019-01-20T00:30:50.748Z,-3.02
2019-01-20T00:33:24.121Z,-3.09
2019-01-20T00:35:54.332Z,-3.06
2019-01-20T00:38:23.486Z,-3.41
2019-01-20T00:40:55.155Z,-3.41
2019-01-20T00:43:28.826Z,-3.30
2019-01-20T00:46:04.079Z,-3.39
2019-01-20T00:48:33.798Z,-3.47
2019-01-20T00:51:05.581Z,-3.40
2019-01-20T00:53:35.113Z,-3.37
2019-01-20T00:56:04.830Z,-3.32
2019-01-20T00:58:39.913Z,-3.29
2019-01-20T01:01:09.539Z,-3.24
2019-01-20T01:03:40.154Z,-3.23
2019-01-20T01:06:13.730Z,-3.29
2019-01-20T01:08:49.872Z,-3.32
2019-01-20T01:11:20.488Z,-3.27
2019-01-20T01:13:51.673Z,-3.33
2019-01-20T01:16:20.917Z,-3.31
2019-01-20T01:18:54.232Z,-3.28
2019-01-20T01:21:27.084Z,-3.24
2019-01-20T01:23:56.600Z,-3.28
2019-01-20T01:26:26.359Z,-3.21
2019-01-20T01:28:57.346Z,-3.29
2019-01-20T01:31:28.538Z,-3.35
2019-01-20T01:33:57.989Z,-3.34
2019-01-20T01:36:28.031Z,-3.33
2019-01-20T01:38:58.038Z,-3.33
2019-01-20T01:41:29.555Z,-3.35
2019-01-20T01:44:00.727Z,-3.42
2019-01-20T01:46:31.352Z,-3.50
2019-01-20T01:49:02.714Z,-3.49
2019-01-20T01:51:35.500Z,-3.54
2019-01-20T01:54:05.548Z,-3.57
2019-01-20T01:56:36.608Z,-3.65
2019-01-20T01:59:11.410Z,-3.65
2019-01-20T02:01:43.462Z,-3.71
2019-01-20T02:04:18.230Z,-3.69
2019-01-20T02:06:49.594Z,-3.63
2019-01-20T02:09:19.632Z,-3.49
2019-01-20T02:11:50.902Z,-3.55
2019-01-20T02:14:24.862Z,-3.54
2019-01-20T02:16:54.874Z,-3.65
2019-01-20T02:19:25.144Z,-3.68
2019-01-20T02:21:55.690Z,-3.70
2019-01-20T02:24:26.158Z,-3.67
2019-01-20T02:27:00.196Z,-3.57
2019-01-20T02:29:34.178Z,-3.64
2019-01-20T02:32:04.314Z,-3.65
2019-01-20T02:34:40.527Z,-3.53
2019-01-20T02:37:10.695Z,-3.45
2019-01-20T02:39:41.291Z,-3.41
2019-01-20T02:42:12.538Z,-3.43
2019-01-20T02:44:43.701Z,-3.47
2019-01-20T02:47:18.335Z,-3.53
2019-01-20T02:49:48.448Z,-3.59
2019-01-20T02:52:18.595Z,-3.60
2019-01-20T02:54:49.348Z,-3.66
2019-01-20T02:57:20.973Z,-3.63
2019-01-20T02:59:51.003Z,-3.63
2019-01-20T03:02:28.586Z,-3.68
2019-01-20T03:05:02.223Z,-3.75
2019-01-20T03:07:32.777Z,-3.80
2019-01-20T03:10:03.050Z,-3.85
2019-01-20T03:12:32.718Z,-3.87
2019-01-20T03:15:04.598Z,-3.94
2019-01-20T03:17:34.132Z,-3.89
2019-01-20T03:20:03.584Z,-3.95
2019-01-20T03:22:35.574Z,-3.96
2019-01-20T03:25:06.087Z,-3.98
2019-01-20T03:27:35.249Z,-4.07
2019-01-20T03:30:08.413Z,-4.25
2019-01-20T03:32:41.105Z,-4.14
2019-01-20T03:35:11.644Z,-4.25
2019-01-20T03:37:43.571Z,-4.33
2019-01-20T03:40:16.387Z,-4.30
2019-01-20T03:42:51.239Z,-4.27
2019-01-20T03:45:21.076Z,-4.20
2019-01-20T03:47:51.312Z,-4.20
2019-01-20T03:50:22.623Z,-4.22
2019-01-20T03:52:52.183Z,-4.20
2019-01-20T03:55:23.241Z,-4.24
2019-01-20T03:57:52.500Z,-4.14
2019-01-20T04:00:27.767Z,-4.07
2019-01-20T04:03:04.540Z,-4.10
2019-01-20T04:05:33.783Z,-4.13
2019-01-20T04:08:03.755Z,-4.20
2019-01-20T04:10:35.538Z,-4.22
2019-01-20T04:13:06.453Z,-4.30
2019-01-20T04:15:41.033Z,-4.42
2019-01-20T04:18:10.533Z,-4.40
2019-01-20T04:20:40.809Z,-4.49
2019-01-20T04:23:10.831Z,-4.48
2019-01-20T04:25:40.410Z,-4.44
2019-01-20T04:28:09.746Z,-4.40
2019-01-20T04:30:43.304Z,-4.40
2019-01-20T04:33:13.335Z,-4.33
2019-01-20T04:36:07.123Z,-4.27
2019-01-20T04:38:39.739Z,-4.27
2019-01-20T04:41:09.863Z,-4.20
2019-01-20T04:43:39.346Z,-4.30
2019-01-20T04:46:08.833Z,-4.33
2019-01-20T04:48:40.489Z,-4.41
2019-01-20T04:51:09.921Z,-4.49
2019-01-20T04:53:41.875Z,-4.52
2019-01-20T04:56:11.337Z,-4.47
2019-01-20T04:58:42.992Z,-4.50
2019-01-20T05:01:15.562Z,-4.50
2019-01-20T05:03:45.462Z,-4.55
2019-01-20T05:06:15.993Z,-4.58
2019-01-20T05:08:46.018Z,-4.56
2019-01-20T05:11:15.791Z,-4.57
2019-01-20T05:13:45.815Z,-4.59
2019-01-20T05:16:15.520Z,-4.68
2019-01-20T05:18:45.525Z,-4.71
2019-01-20T05:21:15.278Z,-4.75
2019-01-20T05:23:45.047Z,-4.75
2019-01-20T05:26:14.228Z,-4.73
2019-01-20T05:28:44.016Z,-4.79
2019-01-20T05:31:15.301Z,-4.77
2019-01-20T05:33:46.045Z,-4.78
2019-01-20T05:36:18.410Z,-4.82
2019-01-20T05:38:48.170Z,-4.83
2019-01-20T05:41:18.063Z,-4.78
2019-01-20T05:43:48.076Z,-4.86
2019-01-20T05:46:17.814Z,-4.78
2019-01-20T05:48:48.472Z,-4.73
2019-01-20T05:51:19.456Z,-4.73
2019-01-20T05:53:52.658Z,-4.75
2019-01-20T05:56:25.527Z,-4.75
2019-01-20T05:58:57.552Z,-4.82
2019-01-20T06:01:27.389Z,-4.75
2019-01-20T06:03:56.607Z,-4.75
2019-01-20T06:06:27.875Z,-4.94
2019-01-20T06:08:58.979Z,-4.91
2019-01-20T06:11:28.412Z,-5.18
2019-01-20T06:14:01.962Z,-5.09
2019-01-20T06:16:31.661Z,-5.09
2019-01-20T06:19:01.396Z,-5.05
2019-01-20T06:21:31.174Z,-5.06
2019-01-20T06:24:07.648Z,-5.05
2019-01-20T06:26:40.767Z,-5.12
2019-01-20T06:29:14.290Z,-5.12
2019-01-20T06:31:46.450Z,-5.22
2019-01-20T06:34:18.071Z,-5.16
2019-01-20T06:36:48.122Z,-5.20
2019-01-20T06:39:20.702Z,-5.07
2019-01-20T06:41:51.034Z,-5.00
2019-01-20T06:44:21.044Z,-4.97
2019-01-20T06:46:57.922Z,-5.03
2019-01-20T06:49:29.502Z,-4.98
2019-01-20T06:52:01.563Z,-4.94
2019-01-20T06:54:31.252Z,-4.90
2019-01-20T06:57:01.184Z,-4.91
2019-01-20T06:59:30.863Z,-4.98
2019-01-20T07:02:01.254Z,-5.14
2019-01-20T07:04:35.237Z,-5.08
2019-01-20T07:07:10.967Z,-5.12
2019-01-20T07:09:42.452Z,-5.23
2019-01-20T07:12:12.763Z,-5.26
2019-01-20T07:14:41.970Z,-5.21
2019-01-20T07:17:11.607Z,-5.27
2019-01-20T07:19:41.250Z,-5.31
2019-01-20T07:22:13.828Z,-5.22
2019-01-20T07:24:47.750Z,-5.20
2019-01-20T07:27:18.973Z,-5.31
2019-01-20T07:29:49.116Z,-5.34
2019-01-20T07:32:20.870Z,-5.26
2019-01-20T07:34:50.360Z,-5.27
2019-01-20T07:37:23.032Z,-5.19
2019-01-20T07:39:52.809Z,-5.15
2019-01-20T07:42:23.187Z,-5.20
2019-01-20T07:44:53.690Z,-5.16
2019-01-20T07:47:23.718Z,-5.17
2019-01-20T07:49:53.000Z,-5.22
2019-01-20T07:52:22.521Z,-5.19
2019-01-20T07:54:52.027Z,-5.18
2019-01-20T07:57:23.099Z,-5.11
2019-01-20T07:59:52.730Z,-5.03
2019-01-20T08:02:22.399Z,-5.06
2019-01-20T08:04:52.919Z,-4.92
2019-01-20T08:07:23.460Z,-4.98
2019-01-20T08:09:53.248Z,-4.91
2019-01-20T08:12:23.860Z,-4.87
2019-01-20T08:14:53.494Z,-4.76
2019-01-20T08:17:24.696Z,-4.80
2019-01-20T08:19:55.256Z,-4.70
2019-01-20T08:22:26.321Z,-4.66
2019-01-20T08:24:55.900Z,-4.56
2019-01-20T08:27:27.038Z,-4.42
2019-01-20T08:29:56.235Z,-4.36
2019-01-20T08:32:25.506Z,-4.28
2019-01-20T08:34:59.188Z,-4.16
2019-01-20T08:37:34.234Z,-4.05
2019-01-20T08:40:05.723Z,-3.93
2019-01-20T08:42:35.580Z,-3.79
2019-01-20T08:45:09.866Z,-3.63
2019-01-20T08:47:48.103Z,-3.46
2019-01-20T08:50:18.736Z,-3.44
2019-01-20T08:52:49.745Z,-3.28
2019-01-20T08:55:19.347Z,-3.15
2019-01-20T08:57:59.135Z,-3.05
2019-01-20T09:00:28.435Z,-3.07
2019-01-20T09:02:57.892Z,-2.92
2019-01-20T09:05:27.543Z,-2.85
2019-01-20T09:07:57.586Z,-2.62
2019-01-20T09:10:28.410Z,-2.48
2019-01-20T09:13:03.675Z,-2.41
2019-01-20T09:15:32.850Z,-2.36
2019-01-20T09:18:02.075Z,-2.20
2019-01-20T09:20:32.647Z,-2.10
2019-01-20T09:23:05.137Z,-1.91
2019-01-20T09:25:34.713Z,-1.97
2019-01-20T09:28:04.460Z,-1.67
2019-01-20T09:30:34.001Z,-1.58
2019-01-20T09:33:03.229Z,-1.51
2019-01-20T09:35:32.840Z,-1.43
2019-01-20T09:38:02.953Z,-1.27
2019-01-20T09:40:32.167Z,-1.38
2019-01-20T09:43:02.597Z,-1.14
2019-01-20T09:45:32.744Z,-0.90
2019-01-20T09:48:02.011Z,-0.78
2019-01-20T09:50:31.550Z,-0.83
2019-01-20T09:53:03.251Z,-0.56
2019-01-20T09:55:32.761Z,-0.38
2019-01-20T09:58:03.759Z,-0.26
2019-01-20T10:00:36.556Z,-0.43
2019-01-20T10:03:16.203Z,-0.55
2019-01-20T10:05:42.366Z,-0.09
2019-01-20T10:08:11.609Z,-0.06
2019-01-20T10:10:44.622Z,0.22
2019-01-20T10:13:14.322Z,0.42
2019-01-20T10:15:44.165Z,0.78
2019-01-20T10:18:13.670Z,0.68
2019-01-20T10:20:44.582Z,0.53
2019-01-20T10:23:17.011Z,0.91
2019-01-20T10:25:46.725Z,0.91
2019-01-20T10:28:18.869Z,1.13
2019-01-20T10:30:50.139Z,1.35
2019-01-20T10:33:19.682Z,1.30
2019-01-20T10:36:08.136Z,1.15
2019-01-20T10:38:38.056Z,1.25
2019-01-20T10:41:13.002Z,1.26
2019-01-20T10:43:43.038Z,1.10
2019-01-20T10:46:13.197Z,1.40
2019-01-20T10:48:46.237Z,1.58
2019-01-20T10:51:20.407Z,1.68
2019-01-20T10:53:53.126Z,2.03
2019-01-20T10:56:23.922Z,2.21
2019-01-20T10:59:16.501Z,2.38
2019-01-20T11:01:46.612Z,2.42
2019-01-20T11:04:15.842Z,2.53
2019-01-20T11:06:48.715Z,2.86
2019-01-20T11:09:17.941Z,2.94
2019-01-20T11:11:47.968Z,2.85
2019-01-20T11:14:17.163Z,2.68
2019-01-20T11:16:46.410Z,2.61
2019-01-20T11:19:16.377Z,2.54
2019-01-20T11:21:45.957Z,2.59
2019-01-20T11:24:17.153Z,2.64
2019-01-20T11:26:46.434Z,2.87
2019-01-20T11:29:16.518Z,3.11
2019-01-20T11:31:48.468Z,3.33
2019-01-20T11:34:21.081Z,3.31
2019-01-20T11:36:53.761Z,3.71
2019-01-20T11:39:24.157Z,3.94
2019-01-20T11:41:54.179Z,3.94
2019-01-20T11:44:40.736Z,3.63
2019-01-20T11:47:18.714Z,3.71
2019-01-20T11:49:51.680Z,3.84
2019-01-20T11:52:24.748Z,3.73
2019-01-20T11:54:54.224Z,3.64
2019-01-20T11:57:27.162Z,3.72
2019-01-20T12:00:01.399Z,3.90
2019-01-20T12:02:33.188Z,4.26
2019-01-20T12:05:02.771Z,4.14
2019-01-20T12:07:32.397Z,4.24
2019-01-20T12:10:08.591Z,4.14
2019-01-20T12:12:41.942Z,3.92
2019-01-20T12:15:14.954Z,4.27
2019-01-20T12:17:44.843Z,4.39
2019-01-20T12:20:14.506Z,4.70
2019-01-20T12:22:44.408Z,5.11
2019-01-20T12:25:15.096Z,4.86
2019-01-20T12:27:44.653Z,5.08
2019-01-20T12:30:20.389Z,5.57
2019-01-20T12:32:52.084Z,6.57
2019-01-20T12:35:21.295Z,7.09
2019-01-20T12:37:51.182Z,7.60
2019-01-20T12:40:29.588Z,7.87
2019-01-20T12:43:21.703Z,8.22
2019-01-20T12:45:51.450Z,8.63
2019-01-20T12:48:21.363Z,8.88
2019-01-20T12:50:51.272Z,8.04
2019-01-20T12:53:26.569Z,8.55
2019-01-20T12:55:57.460Z,8.79
2019-01-20T12:58:28.437Z,8.86
2019-01-20T13:00:58.779Z,9.41
2019-01-20T13:03:33.148Z,9.30
2019-01-20T13:06:02.387Z,9.52
2019-01-20T13:08:31.652Z,9.84
2019-01-20T13:11:00.894Z,9.54
2019-01-20T13:13:30.445Z,9.51
2019-01-20T13:15:59.928Z,10.12
2019-01-20T13:18:29.214Z,10.41
2019-01-20T13:20:58.459Z,10.72
2019-01-20T13:23:29.629Z,10.85
2019-01-20T13:25:58.981Z,10.93
2019-01-20T13:28:29.139Z,10.99
2019-01-20T13:30:58.328Z,11.26
2019-01-20T13:33:29.357Z,11.87
2019-01-20T13:35:58.783Z,11.67
2019-01-20T13:38:29.904Z,11.69
2019-01-20T13:41:05.546Z,11.79
2019-01-20T13:43:35.219Z,11.49
2019-01-20T13:46:05.104Z,11.84
2019-01-20T13:48:34.356Z,11.81
2019-01-20T13:51:04.092Z,11.47
2019-01-20T13:53:38.392Z,12.14
2019-01-20T13:56:11.539Z,11.88
2019-01-20T13:58:41.219Z,11.77
2019-01-20T14:01:10.617Z,12.46
2019-01-20T14:03:40.176Z,12.97
2019-01-20T14:06:10.289Z,12.81
2019-01-20T14:08:44.248Z,12.84
2019-01-20T14:11:13.623Z,12.22
2019-01-20T14:13:42.940Z,13.27
2019-01-20T14:16:13.341Z,12.81
2019-01-20T14:18:45.412Z,12.37
2019-01-20T14:21:13.952Z,12.45
2019-01-20T14:23:43.530Z,12.61
2019-01-20T14:26:15.197Z,13.28
2019-01-20T14:28:44.415Z,13.27
2019-01-20T14:31:16.553Z,12.71
2019-01-20T14:33:46.341Z,13.20
2019-01-20T14:36:15.559Z,13.36
2019-01-20T14:38:46.233Z,13.26
2019-01-20T14:41:15.671Z,13.92
2019-01-20T14:43:44.912Z,14.17
2019-01-20T14:46:14.451Z,13.29
2019-01-20T14:48:44.161Z,13.60
2019-01-20T14:51:14.756Z,13.77
2019-01-20T14:53:44.552Z,13.50
2019-01-20T14:56:14.107Z,13.60
2019-01-20T14:58:44.140Z,13.53
2019-01-20T15:01:16.338Z,13.23
2019-01-20T15:03:46.140Z,12.60
2019-01-20T15:06:18.111Z,12.45
2019-01-20T15:08:47.638Z,12.33
2019-01-20T15:11:17.128Z,12.36
2019-01-20T15:13:46.357Z,11.72
2019-01-20T15:16:15.932Z,11.79
2019-01-20T15:18:45.440Z,11.57
2019-01-20T15:21:14.988Z,11.30
2019-01-20T15:23:46.311Z,11.09
2019-01-20T15:26:16.122Z,10.63
2019-01-20T15:28:46.238Z,10.30
2019-01-20T15:31:17.273Z,9.82
2019-01-20T15:33:47.433Z,9.84
2019-01-20T15:36:20.433Z,9.44
2019-01-20T15:38:50.019Z,8.60
2019-01-20T15:41:23.045Z,7.19
2019-01-20T15:43:53.107Z,6.61
2019-01-20T15:46:26.371Z,6.32
2019-01-20T15:48:55.601Z,5.64
2019-01-20T15:51:26.304Z,5.54
2019-01-20T15:53:56.167Z,5.14
2019-01-20T15:56:27.069Z,4.86
2019-01-20T15:58:56.885Z,4.37
2019-01-20T16:01:28.265Z,4.21
2019-01-20T16:03:58.801Z,3.91
2019-01-20T16:06:28.767Z,3.96
2019-01-20T16:08:57.955Z,3.67
2019-01-20T16:11:31.256Z,3.52
2019-01-20T16:14:00.408Z,3.14
2019-01-20T16:16:35.243Z,2.94
2019-01-20T16:19:08.658Z,2.90
2019-01-20T16:21:38.217Z,2.82
2019-01-20T16:24:09.903Z,2.53
2019-01-20T16:26:43.879Z,2.58
2019-01-20T16:29:18.165Z,2.32
2019-01-20T16:31:48.475Z,2.30
2019-01-20T16:34:19.233Z,2.20
2019-01-20T16:36:48.967Z,2.21
2019-01-20T16:39:18.712Z,1.97
2019-01-20T16:41:49.521Z,2.05
2019-01-20T16:44:18.849Z,1.99
2019-01-20T16:46:48.264Z,1.84
2019-01-20T16:49:18.388Z,1.73
2019-01-20T16:51:47.918Z,1.72
2019-01-20T16:54:17.124Z,1.62
2019-01-20T16:56:47.202Z,1.48
2019-01-20T16:59:17.395Z,1.54
2019-01-20T17:01:48.891Z,1.64
2019-01-20T17:04:18.263Z,1.52
2019-01-20T17:06:48.137Z,1.32
2019-01-20T17:09:18.796Z,1.24
2019-01-20T17:11:48.112Z,1.08
2019-01-20T17:14:17.615Z,0.94
2019-01-20T17:16:48.589Z,1.00
2019-01-20T17:19:18.399Z,0.81
2019-01-20T17:21:48.727Z,0.98
2019-01-20T17:24:19.257Z,0.85
2019-01-20T17:26:48.525Z,0.72
2019-01-20T17:29:18.181Z,0.67
2019-01-20T17:31:47.410Z,0.53
2019-01-20T17:34:16.912Z,0.53
2019-01-20T17:36:46.638Z,0.53
2019-01-20T17:39:16.934Z,0.22
2019-01-20T17:41:46.460Z,0.24
2019-01-20T17:44:16.515Z,0.21
2019-01-20T17:46:45.848Z,0.24
2019-01-20T17:49:17.063Z,0.29
2019-01-20T17:51:46.443Z,0.23
2019-01-20T17:54:15.802Z,0.42
2019-01-20T17:56:45.139Z,0.36
2019-01-20T17:59:14.631Z,0.22
2019-01-20T18:01:47.776Z,0.35
2019-01-20T18:04:17.977Z,0.24
2019-01-20T18:06:47.813Z,0.27
2019-01-20T18:09:17.726Z,0.26
2019-01-20T18:11:53.027Z,0.27
2019-01-20T18:14:22.302Z,0.24
2019-01-20T18:16:51.821Z,0.31
2019-01-20T18:19:21.293Z,0.22
2019-01-20T18:21:52.005Z,0.19
2019-01-20T18:24:23.135Z,0.31
2019-01-20T18:26:55.516Z,0.27
2019-01-20T18:29:24.739Z,0.19
2019-01-20T18:31:56.232Z,0.10
2019-01-20T18:34:25.489Z,0.06
2019-01-20T18:36:56.823Z,0.01
2019-01-20T18:39:26.815Z,0.04
2019-01-20T18:41:56.301Z,-0.05
2019-01-20T18:44:25.872Z,-0.21
2019-01-20T18:46:56.966Z,-0.23
2019-01-20T18:49:29.369Z,-0.27
2019-01-20T18:51:58.614Z,-0.33
2019-01-20T18:54:28.163Z,-0.38
2019-01-20T18:57:01.635Z,-0.33
2019-01-20T18:59:31.646Z,-0.47
2019-01-20T19:02:01.301Z,-0.40
2019-01-20T19:04:31.905Z,-0.42
2019-01-20T19:07:04.294Z,-0.48
2019-01-20T19:09:33.961Z,-0.64
2019-01-20T19:12:04.560Z,-0.64
2019-01-20T19:14:35.316Z,-0.61
2019-01-20T19:17:04.550Z,-0.61
2019-01-20T19:19:34.079Z,-0.58
2019-01-20T19:22:03.955Z,-0.65
2019-01-20T19:24:33.184Z,-0.82
2019-01-20T19:27:03.567Z,-0.82
2019-01-20T19:29:34.246Z,-0.83
2019-01-20T19:32:03.847Z,-0.94
2019-01-20T19:34:33.111Z,-0.95
2019-01-20T19:37:06.729Z,-0.93
2019-01-20T19:39:36.926Z,-1.06
2019-01-20T19:42:06.419Z,-1.16
2019-01-20T19:44:35.651Z,-1.12
2019-01-20T19:47:05.300Z,-1.11
2019-01-20T19:49:35.434Z,-1.25
2019-01-20T19:52:05.090Z,-1.13
2019-01-20T19:54:35.627Z,-1.14
2019-01-20T19:57:05.521Z,-1.29
2019-01-20T19:59:37.884Z,-1.23
2019-01-20T20:02:10.273Z,-1.21
2019-01-20T20:04:41.815Z,-1.40
2019-01-20T20:07:15.405Z,-1.40
2019-01-20T20:09:45.757Z,-1.54
2019-01-20T20:12:16.149Z,-1.50
2019-01-20T20:14:46.596Z,-1.64
2019-01-20T20:17:19.336Z,-1.63
2019-01-20T20:20:05.736Z,-1.62
2019-01-20T20:22:35.647Z,-1.69
2019-01-20T20:25:06.394Z,-1.67
2019-01-20T20:27:37.997Z,-1.81
2019-01-20T20:30:11.801Z,-1.84
2019-01-20T20:32:42.628Z,-1.90
2019-01-20T20:35:11.839Z,-1.94
2019-01-20T20:37:45.969Z,-1.98
2019-01-20T20:40:17.541Z,-1.97
2019-01-20T20:42:47.188Z,-1.86
2019-01-20T20:45:22.268Z,-1.84
2019-01-20T20:47:51.984Z,-1.89
2019-01-20T20:50:22.806Z,-1.86
2019-01-20T20:52:53.291Z,-1.88
2019-01-20T20:55:24.908Z,-1.78
2019-01-20T20:57:54.358Z,-1.86
2019-01-20T21:00:47.821Z,-1.84
2019-01-20T21:03:25.426Z,-1.93
2019-01-20T21:05:56.621Z,-1.94
2019-01-20T21:08:30.876Z,-1.91
2019-01-20T21:11:02.607Z,-1.87
2019-01-20T21:13:33.019Z,-1.91
2019-01-20T21:16:05.338Z,-1.99
2019-01-20T21:18:38.387Z,-1.98
2019-01-20T21:21:08.498Z,-2.15
2019-01-20T21:23:39.472Z,-2.16
2019-01-20T21:26:10.815Z,-2.20
2019-01-20T21:28:40.648Z,-2.26
2019-01-20T21:31:10.155Z,-2.27
2019-01-20T21:33:40.795Z,-2.34
2019-01-20T21:36:10.623Z,-2.34
2019-01-20T21:38:43.045Z,-2.33
2019-01-20T21:41:14.039Z,-2.34
2019-01-20T21:43:43.925Z,-2.34
2019-01-20T21:46:18.744Z,-2.39
2019-01-20T21:48:48.313Z,-2.36
2019-01-20T21:51:19.358Z,-2.38
2019-01-20T21:53:57.105Z,-2.41
2019-01-20T21:56:29.726Z,-2.40
2019-01-20T21:59:03.483Z,-2.39
2019-01-20T22:01:33.212Z,-2.40
2019-01-20T22:04:03.331Z,-2.38
2019-01-20T22:06:37.958Z,-2.34
2019-01-20T22:09:10.197Z,-2.46
2019-01-20T22:11:41.463Z,-2.49
2019-01-20T22:14:17.623Z,-2.50
2019-01-20T22:16:52.790Z,-2.50
2019-01-20T22:19:21.194Z,-2.45
2019-01-20T22:21:51.003Z,-2.60
2019-01-20T22:24:24.769Z,-2.61
2019-01-20T22:26:58.922Z,-2.68
2019-01-20T22:29:28.530Z,-2.64
2019-01-20T22:32:05.182Z,-2.57
2019-01-20T22:34:40.726Z,-2.67
2019-01-20T22:37:11.281Z,-2.80
2019-01-20T22:39:44.164Z,-2.75
2019-01-20T22:42:15.974Z,-2.80
2019-01-20T22:44:46.509Z,-2.80
2019-01-20T22:47:16.631Z,-2.77
2019-01-20T22:49:50.914Z,-2.74
2019-01-20T22:52:20.410Z,-2.98
2019-01-20T22:54:49.979Z,-3.07
2019-01-20T22:57:20.061Z,-3.01
2019-01-20T22:59:53.303Z,-3.04
2019-01-20T23:02:23.548Z,-3.20
2019-01-20T23:04:52.918Z,-3.21
2019-01-20T23:07:22.710Z,-3.17
2019-01-20T23:09:52.816Z,-3.22
2019-01-20T23:12:22.602Z,-3.26
2019-01-20T23:14:52.105Z,-3.22
2019-01-20T23:17:23.523Z,-3.39
2019-01-20T23:19:54.343Z,-3.52
2019-01-20T23:22:23.557Z,-3.55
2019-01-20T23:24:53.617Z,-3.49
2019-01-20T23:27:29.165Z,-3.39
2019-01-20T23:29:59.995Z,-3.32
2019-01-20T23:32:30.447Z,-3.42
2019-01-20T23:35:01.080Z,-3.61
2019-01-20T23:37:33.993Z,-3.57
2019-01-20T23:40:05.028Z,-3.55
2019-01-20T23:42:40.187Z,-3.57
2019-01-20T23:45:10.413Z,-3.60
2019-01-20T23:47:42.054Z,-3.60
2019-01-20T23:50:11.839Z,-3.62
2019-01-20T23:52:46.405Z,-3.75
2019-01-20T23:55:15.952Z,-3.67
2019-01-20T23:57:45.583Z,-3.65
